sensor_id;sensor_type;location;lat;lon;timestamp;pressure;altitude;pressure_sealevel;temperature;humidity
4590;BME280;2307;48.448;9.216;2023-02-28T00:00:04;95860.84;;;-1.89;100.00
4590;BME280;2307;48.448;9.216;2023-02-28T00:02:36;95862.09;;;-1.93;100.00
4590;BME280;2307;48.448;9.216;2023-02-28T00:05:03;95862.56;;;-1.80;100.00
4590;BME280;2307;48.448;9.216;2023-02-28T00:07:30;95861.25;;;-1.84;100.00
4590;BME280;2307;48.448;9.216;2023-02-28T00:09:56;95863.75;;;-1.92;100.00
4590;BME280;2307;48.448;9.216;2023-02-28T00:12:23;95861.84;;;-1.90;100.00
4590;BME280;2307;48.448;9.216;2023-02-28T00:14:50;95859.69;;;-1.95;100.00
4590;BME280;2307;48.448;9.216;2023-02-28T00:17:16;95866.44;;;-1.84;100.00
4590;BME280;2307;48.448;9.216;2023-02-28T00:19:47;95866.44;;;-1.84;100.00
4590;BME280;2307;48.448;9.216;2023-02-28T00:22:14;95863.91;;;-1.76;100.00
4590;BME280;2307;48.448;9.216;2023-02-28T00:24:41;95863.81;;;-1.67;100.00
4590;BME280;2307;48.448;9.216;2023-02-28T00:27:07;95867.22;;;-1.66;100.00
4590;BME280;2307;48.448;9.216;2023-02-28T00:29:33;95865.06;;;-1.71;100.00
4590;BME280;2307;48.448;9.216;2023-02-28T00:32:00;95859.31;;;-1.82;100.00
4590;BME280;2307;48.448;9.216;2023-02-28T00:34:26;95860.78;;;-1.97;100.00
4590;BME280;2307;48.448;9.216;2023-02-28T00:36:54;95861.59;;;-1.97;100.00
4590;BME280;2307;48.448;9.216;2023-02-28T00:39:20;95858.78;;;-2.03;100.00
4590;BME280;2307;48.448;9.216;2023-02-28T00:41:47;95858.41;;;-2.08;100.00
4590;BME280;2307;48.448;9.216;2023-02-28T00:44:13;95860.91;;;-2.17;100.00
4590;BME280;2307;48.448;9.216;2023-02-28T00:46:39;95858.50;;;-2.28;100.00
4590;BME280;2307;48.448;9.216;2023-02-28T00:49:06;95858.44;;;-2.36;100.00
4590;BME280;2307;48.448;9.216;2023-02-28T00:51:32;95860.97;;;-2.26;100.00
4590;BME280;2307;48.448;9.216;2023-02-28T00:54:00;95855.03;;;-2.36;100.00
4590;BME280;2307;48.448;9.216;2023-02-28T00:56:26;95857.19;;;-2.32;100.00
4590;BME280;2307;48.448;9.216;2023-02-28T00:58:53;95858.75;;;-2.21;100.00
4590;BME280;2307;48.448;9.216;2023-02-28T01:01:19;95861.16;;;-2.37;100.00
4590;BME280;2307;48.448;9.216;2023-02-28T01:03:45;95858.72;;;-2.39;100.00
4590;BME280;2307;48.448;9.216;2023-02-28T01:06:12;95855.56;;;-2.33;100.00
4590;BME280;2307;48.448;9.216;2023-02-28T01:08:38;95855.56;;;-2.33;100.00
4590;BME280;2307;48.448;9.216;2023-02-28T01:11:09;95852.84;;;-2.41;100.00
4590;BME280;2307;48.448;9.216;2023-02-28T01:13:36;95859.13;;;-2.43;100.00
4590;BME280;2307;48.448;9.216;2023-02-28T01:16:03;95869.53;;;-2.53;100.00
4590;BME280;2307;48.448;9.216;2023-02-28T01:18:29;95862.47;;;-2.51;100.00
4590;BME280;2307;48.448;9.216;2023-02-28T01:20:55;95859.72;;;-2.49;100.00
4590;BME280;2307;48.448;9.216;2023-02-28T01:23:22;95853.44;;;-2.47;100.00
4590;BME280;2307;48.448;9.216;2023-02-28T01:25:49;95857.56;;;-2.54;100.00
4590;BME280;2307;48.448;9.216;2023-02-28T01:28:16;95857.00;;;-2.48;100.00
4590;BME280;2307;48.448;9.216;2023-02-28T01:30:46;95861.69;;;-2.61;100.00
4590;BME280;2307;48.448;9.216;2023-02-28T01:33:13;95851.13;;;-2.50;100.00
4590;BME280;2307;48.448;9.216;2023-02-28T01:35:39;95862.47;;;-2.51;100.00
4590;BME280;2307;48.448;9.216;2023-02-28T01:38:06;95858.81;;;-2.58;100.00
4590;BME280;2307;48.448;9.216;2023-02-28T01:40:32;95846.06;;;-2.69;100.00
4590;BME280;2307;48.448;9.216;2023-02-28T01:42:59;95845.25;;;-2.70;100.00
4590;BME280;2307;48.448;9.216;2023-02-28T01:45:27;95851.41;;;-2.80;100.00
4590;BME280;2307;48.448;9.216;2023-02-28T01:47:55;95843.25;;;-2.85;100.00
4590;BME280;2307;48.448;9.216;2023-02-28T01:50:24;95842.31;;;-2.84;100.00
4590;BME280;2307;48.448;9.216;2023-02-28T01:52:52;95835.66;;;-2.87;100.00
4590;BME280;2307;48.448;9.216;2023-02-28T01:55:20;95835.63;;;-2.77;100.00
4590;BME280;2307;48.448;9.216;2023-02-28T01:57:49;95835.63;;;-2.77;100.00
4590;BME280;2307;48.448;9.216;2023-02-28T02:00:18;95835.34;;;-2.74;100.00
4590;BME280;2307;48.448;9.216;2023-02-28T02:02:47;95829.69;;;-2.87;100.00
4590;BME280;2307;48.448;9.216;2023-02-28T02:05:16;95832.09;;;-2.76;100.00
4590;BME280;2307;48.448;9.216;2023-02-28T02:07:43;95830.78;;;-2.90;100.00
4590;BME280;2307;48.448;9.216;2023-02-28T02:10:11;95823.97;;;-2.91;100.00
4590;BME280;2307;48.448;9.216;2023-02-28T02:12:47;95825.34;;;-2.96;100.00
4590;BME280;2307;48.448;9.216;2023-02-28T02:15:19;95815.31;;;-2.99;100.00
4590;BME280;2307;48.448;9.216;2023-02-28T02:17:51;95819.81;;;-3.01;100.00
4590;BME280;2307;48.448;9.216;2023-02-28T02:20:32;95813.91;;;-2.94;100.00
4590;BME280;2307;48.448;9.216;2023-02-28T02:23:07;95810.72;;;-3.05;100.00
4590;BME280;2307;48.448;9.216;2023-02-28T02:25:39;95810.97;;;-2.99;100.00
4590;BME280;2307;48.448;9.216;2023-02-28T02:28:17;95817.03;;;-2.90;100.00
4590;BME280;2307;48.448;9.216;2023-02-28T02:30:58;95816.38;;;-2.92;100.00
4590;BME280;2307;48.448;9.216;2023-02-28T02:36:12;95817.31;;;-2.93;100.00
4590;BME280;2307;48.448;9.216;2023-02-28T02:38:45;95823.16;;;-2.91;100.00
4590;BME280;2307;48.448;9.216;2023-02-28T02:41:13;95816.91;;;-2.89;100.00
4590;BME280;2307;48.448;9.216;2023-02-28T02:43:44;95813.88;;;-2.84;100.00
4590;BME280;2307;48.448;9.216;2023-02-28T02:46:14;95812.16;;;-2.93;100.00
4590;BME280;2307;48.448;9.216;2023-02-28T02:48:42;95814.75;;;-2.93;100.00
4590;BME280;2307;48.448;9.216;2023-02-28T02:51:13;95816.34;;;-2.83;100.00
4590;BME280;2307;48.448;9.216;2023-02-28T02:53:41;95831.03;;;-2.83;100.00
4590;BME280;2307;48.448;9.216;2023-02-28T02:56:09;95825.00;;;-2.74;100.00
4590;BME280;2307;48.448;9.216;2023-02-28T02:58:37;95829.97;;;-2.90;100.00
4590;BME280;2307;48.448;9.216;2023-02-28T03:01:08;95831.28;;;-2.77;100.00
4590;BME280;2307;48.448;9.216;2023-02-28T03:03:36;95825.94;;;-2.75;100.00
4590;BME280;2307;48.448;9.216;2023-02-28T03:06:03;95828.81;;;-2.78;100.00
4590;BME280;2307;48.448;9.216;2023-02-28T03:08:34;95815.84;;;-2.69;100.00
4590;BME280;2307;48.448;9.216;2023-02-28T03:11:02;95824.72;;;-2.71;100.00
4590;BME280;2307;48.448;9.216;2023-02-28T03:13:51;95819.25;;;-2.68;100.00
4590;BME280;2307;48.448;9.216;2023-02-28T03:19:10;95821.47;;;-2.73;100.00
4590;BME280;2307;48.448;9.216;2023-02-28T03:21:40;95811.91;;;-2.73;100.00
4590;BME280;2307;48.448;9.216;2023-02-28T03:24:11;95815.72;;;-2.67;100.00
4590;BME280;2307;48.448;9.216;2023-02-28T03:26:43;95811.97;;;-2.55;100.00
4590;BME280;2307;48.448;9.216;2023-02-28T03:29:13;95814.31;;;-2.61;100.00
4590;BME280;2307;48.448;9.216;2023-02-28T03:31:43;95814.28;;;-2.52;100.00
4590;BME280;2307;48.448;9.216;2023-02-28T03:34:12;95812.50;;;-2.51;100.00
4590;BME280;2307;48.448;9.216;2023-02-28T03:36:42;95814.56;;;-2.55;100.00
4590;BME280;2307;48.448;9.216;2023-02-28T03:39:13;95811.88;;;-2.63;100.00
4590;BME280;2307;48.448;9.216;2023-02-28T03:41:41;95814.91;;;-2.67;100.00
4590;BME280;2307;48.448;9.216;2023-02-28T03:44:11;95800.16;;;-2.57;100.00
4590;BME280;2307;48.448;9.216;2023-02-28T03:46:42;95810.75;;;-2.51;100.00
4590;BME280;2307;48.448;9.216;2023-02-28T03:49:12;95807.97;;;-2.67;100.00
4590;BME280;2307;48.448;9.216;2023-02-28T03:51:40;95816.25;;;-2.63;100.00
4590;BME280;2307;48.448;9.216;2023-02-28T03:54:08;95809.50;;;-2.74;100.00
4590;BME280;2307;48.448;9.216;2023-02-28T03:56:39;95817.19;;;-2.64;100.00
4590;BME280;2307;48.448;9.216;2023-02-28T03:59:08;95814.69;;;-2.56;100.00
4590;BME280;2307;48.448;9.216;2023-02-28T04:01:39;95816.56;;;-2.49;100.00
4590;BME280;2307;48.448;9.216;2023-02-28T04:04:07;95819.34;;;-2.60;100.00
4590;BME280;2307;48.448;9.216;2023-02-28T04:06:34;95816.88;;;-2.52;100.00
4590;BME280;2307;48.448;9.216;2023-02-28T04:09:01;95815.34;;;-2.45;100.00
4590;BME280;2307;48.448;9.216;2023-02-28T04:11:29;95808.81;;;-2.49;100.00
4590;BME280;2307;48.448;9.216;2023-02-28T04:13:59;95814.81;;;-2.48;100.00
4590;BME280;2307;48.448;9.216;2023-02-28T04:16:26;95811.25;;;-2.47;100.00
4590;BME280;2307;48.448;9.216;2023-02-28T04:18:53;95813.84;;;-2.47;100.00
4590;BME280;2307;48.448;9.216;2023-02-28T04:21:28;95819.94;;;-2.39;100.00
4590;BME280;2307;48.448;9.216;2023-02-28T04:23:54;95819.94;;;-2.39;100.00
4590;BME280;2307;48.448;9.216;2023-02-28T04:26:21;95818.94;;;-2.38;100.00
4590;BME280;2307;48.448;9.216;2023-02-28T04:28:47;95811.47;;;-2.41;100.00
4590;BME280;2307;48.448;9.216;2023-02-28T04:31:15;95814.59;;;-2.37;100.00
4590;BME280;2307;48.448;9.216;2023-02-28T04:33:41;95804.63;;;-2.32;100.00
4590;BME280;2307;48.448;9.216;2023-02-28T04:36:08;95806.66;;;-2.26;100.00
4590;BME280;2307;48.448;9.216;2023-02-28T04:38:35;95806.34;;;-2.23;100.00
4590;BME280;2307;48.448;9.216;2023-02-28T04:41:02;95807.31;;;-2.24;100.00
4590;BME280;2307;48.448;9.216;2023-02-28T04:43:28;95805.81;;;-2.27;100.00
4590;BME280;2307;48.448;9.216;2023-02-28T04:45:55;95801.47;;;-2.08;100.00
4590;BME280;2307;48.448;9.216;2023-02-28T04:48:24;95804.81;;;-2.16;100.00
4590;BME280;2307;48.448;9.216;2023-02-28T04:50:50;95801.41;;;-2.17;100.00
4590;BME280;2307;48.448;9.216;2023-02-28T04:53:16;95808.66;;;-2.20;100.00
4590;BME280;2307;48.448;9.216;2023-02-28T04:55:43;95802.34;;;-2.18;100.00
4590;BME280;2307;48.448;9.216;2023-02-28T04:58:10;95804.66;;;-2.15;100.00
4590;BME280;2307;48.448;9.216;2023-02-28T05:00:37;95809.47;;;-2.20;100.00
4590;BME280;2307;48.448;9.216;2023-02-28T05:03:03;95810.19;;;-2.27;100.00
4590;BME280;2307;48.448;9.216;2023-02-28T05:05:31;95807.06;;;-2.31;100.00
4590;BME280;2307;48.448;9.216;2023-02-28T05:07:57;95809.13;;;-2.34;100.00
4590;BME280;2307;48.448;9.216;2023-02-28T05:10:23;95816.66;;;-2.41;100.00
4590;BME280;2307;48.448;9.216;2023-02-28T05:12:50;95820.53;;;-2.27;100.00
4590;BME280;2307;48.448;9.216;2023-02-28T05:15:16;95819.94;;;-2.39;100.00
4590;BME280;2307;48.448;9.216;2023-02-28T05:17:43;95822.88;;;-2.34;100.00
4590;BME280;2307;48.448;9.216;2023-02-28T05:20:10;95831.75;;;-2.36;100.00
4590;BME280;2307;48.448;9.216;2023-02-28T05:22:38;95823.94;;;-2.27;100.00
4590;BME280;2307;48.448;9.216;2023-02-28T05:25:04;95823.63;;;-2.24;100.00
4590;BME280;2307;48.448;9.216;2023-02-28T05:27:31;95828.94;;;-2.25;100.00
4590;BME280;2307;48.448;9.216;2023-02-28T05:29:57;95830.91;;;-2.09;100.00
4590;BME280;2307;48.448;9.216;2023-02-28T05:32:24;95828.81;;;-2.24;100.00
4590;BME280;2307;48.448;9.216;2023-02-28T05:34:50;95824.28;;;-2.22;100.00
4590;BME280;2307;48.448;9.216;2023-02-28T05:37:16;95826.47;;;-2.17;100.00
4590;BME280;2307;48.448;9.216;2023-02-28T05:39:44;95823.94;;;-2.27;100.00
4590;BME280;2307;48.448;9.216;2023-02-28T05:42:10;95824.69;;;-2.17;100.00
4590;BME280;2307;48.448;9.216;2023-02-28T05:44:37;95826.94;;;-2.31;100.00
4590;BME280;2307;48.448;9.216;2023-02-28T05:47:03;95823.13;;;-2.27;100.00
4590;BME280;2307;48.448;9.216;2023-02-28T05:49:29;95824.97;;;-2.20;100.00
4590;BME280;2307;48.448;9.216;2023-02-28T05:51:56;95818.28;;;-2.12;100.00
4590;BME280;2307;48.448;9.216;2023-02-28T05:54:22;95818.47;;;-2.24;100.00
4590;BME280;2307;48.448;9.216;2023-02-28T05:56:50;95823.22;;;-2.19;100.00
4590;BME280;2307;48.448;9.216;2023-02-28T05:59:16;95815.59;;;-2.21;100.00
4590;BME280;2307;48.448;9.216;2023-02-28T06:01:43;95821.13;;;-2.16;100.00
4590;BME280;2307;48.448;9.216;2023-02-28T06:04:13;95828.22;;;-2.18;100.00
4590;BME280;2307;48.448;9.216;2023-02-28T06:06:42;95829.81;;;-2.07;100.00
4590;BME280;2307;48.448;9.216;2023-02-28T06:09:10;95824.22;;;-2.12;100.00
4590;BME280;2307;48.448;9.216;2023-02-28T06:11:36;95826.81;;;-2.12;100.00
4590;BME280;2307;48.448;9.216;2023-02-28T06:14:04;95831.28;;;-2.22;100.00
4590;BME280;2307;48.448;9.216;2023-02-28T06:16:31;95835.28;;;-2.10;100.00
4590;BME280;2307;48.448;9.216;2023-02-28T06:18:58;95845.56;;;-2.00;100.00
4590;BME280;2307;48.448;9.216;2023-02-28T06:21:25;95849.09;;;-2.01;100.00
4590;BME280;2307;48.448;9.216;2023-02-28T06:23:52;95853.84;;;-1.97;100.00
4590;BME280;2307;48.448;9.216;2023-02-28T06:26:18;95846.00;;;-1.87;100.00
4590;BME280;2307;48.448;9.216;2023-02-28T06:28:45;95854.41;;;-2.03;100.00
4590;BME280;2307;48.448;9.216;2023-02-28T06:31:13;95857.00;;;-2.03;100.00
4590;BME280;2307;48.448;9.216;2023-02-28T06:33:40;95856.50;;;-2.06;100.00
4590;BME280;2307;48.448;9.216;2023-02-28T06:36:07;95848.50;;;-1.95;100.00
4590;BME280;2307;48.448;9.216;2023-02-28T06:38:34;95867.50;;;-1.87;100.00
4590;BME280;2307;48.448;9.216;2023-02-28T06:41:01;95858.56;;;-1.92;100.00
4590;BME280;2307;48.448;9.216;2023-02-28T06:43:28;95863.91;;;-1.76;100.00
4590;BME280;2307;48.448;9.216;2023-02-28T06:45:55;95864.69;;;-1.93;100.00
4590;BME280;2307;48.448;9.216;2023-02-28T06:48:23;95867.81;;;-1.90;100.00
4590;BME280;2307;48.448;9.216;2023-02-28T06:50:50;95873.50;;;-1.86;100.00
4590;BME280;2307;48.448;9.216;2023-02-28T06:53:16;95868.50;;;-1.88;100.00
4590;BME280;2307;48.448;9.216;2023-02-28T06:55:42;95867.38;;;-1.85;100.00
4590;BME280;2307;48.448;9.216;2023-02-28T06:58:09;95869.31;;;-1.87;100.00
4590;BME280;2307;48.448;9.216;2023-02-28T07:00:40;95866.50;;;-1.76;100.00
4590;BME280;2307;48.448;9.216;2023-02-28T07:03:06;95860.34;;;-1.75;100.00
4590;BME280;2307;48.448;9.216;2023-02-28T07:05:35;95871.22;;;-1.72;100.00
4590;BME280;2307;48.448;9.216;2023-02-28T07:08:02;95871.75;;;-1.68;100.00
4590;BME280;2307;48.448;9.216;2023-02-28T07:10:28;95881.00;;;-1.66;100.00
4590;BME280;2307;48.448;9.216;2023-02-28T07:12:55;95879.97;;;-1.73;100.00
4590;BME280;2307;48.448;9.216;2023-02-28T07:15:21;95877.06;;;-1.70;100.00
4590;BME280;2307;48.448;9.216;2023-02-28T07:17:47;95876.41;;;-1.72;100.00
4590;BME280;2307;48.448;9.216;2023-02-28T07:20:14;95880.91;;;-1.74;100.00
4590;BME280;2307;48.448;9.216;2023-02-28T07:22:41;95890.16;;;-1.71;100.00
4590;BME280;2307;48.448;9.216;2023-02-28T07:25:08;95886.19;;;-1.66;100.00
4590;BME280;2307;48.448;9.216;2023-02-28T07:27:35;95887.00;;;-1.65;100.00
4590;BME280;2307;48.448;9.216;2023-02-28T07:30:01;95892.47;;;-1.68;100.00
4590;BME280;2307;48.448;9.216;2023-02-28T07:32:28;95894.31;;;-1.61;100.00
4590;BME280;2307;48.448;9.216;2023-02-28T07:34:55;95883.00;;;-1.59;100.00
4590;BME280;2307;48.448;9.216;2023-02-28T07:37:21;95885.94;;;-1.72;100.00
4590;BME280;2307;48.448;9.216;2023-02-28T07:39:49;95882.19;;;-1.60;100.00
4590;BME280;2307;48.448;9.216;2023-02-28T07:42:16;95872.53;;;-1.68;100.00
4590;BME280;2307;48.448;9.216;2023-02-28T07:44:42;95880.94;;;-1.56;100.00
4590;BME280;2307;48.448;9.216;2023-02-28T07:47:09;95888.00;;;-1.58;100.00
4590;BME280;2307;48.448;9.216;2023-02-28T07:49:36;95884.03;;;-1.52;100.00
4590;BME280;2307;48.448;9.216;2023-02-28T07:52:02;95882.84;;;-1.58;100.00
4590;BME280;2307;48.448;9.216;2023-02-28T07:54:28;95893.94;;;-1.66;100.00
4590;BME280;2307;48.448;9.216;2023-02-28T07:56:56;95893.19;;;-1.58;100.00
4590;BME280;2307;48.448;9.216;2023-02-28T07:59:22;95894.22;;;-1.51;100.00
4590;BME280;2307;48.448;9.216;2023-02-28T08:01:49;95893.63;;;-1.45;100.00
4590;BME280;2307;48.448;9.216;2023-02-28T08:04:15;95896.16;;;-1.53;100.00
4590;BME280;2307;48.448;9.216;2023-02-28T08:06:42;95901.28;;;-1.43;100.00
4590;BME280;2307;48.448;9.216;2023-02-28T08:09:08;95898.28;;;-1.48;100.00
4590;BME280;2307;48.448;9.216;2023-02-28T08:11:34;95907.94;;;-1.41;100.00
4590;BME280;2307;48.448;9.216;2023-02-28T08:14:02;95905.69;;;-1.36;100.00
4590;BME280;2307;48.448;9.216;2023-02-28T08:16:29;95906.00;;;-1.39;100.00
4590;BME280;2307;48.448;9.216;2023-02-28T08:18:55;95912.44;;;-1.43;100.00
4590;BME280;2307;48.448;9.216;2023-02-28T08:21:21;95905.34;;;-1.41;100.00
4590;BME280;2307;48.448;9.216;2023-02-28T08:23:48;95913.16;;;-1.33;100.00
4590;BME280;2307;48.448;9.216;2023-02-28T08:26:15;95912.50;;;-1.35;100.00
4590;BME280;2307;48.448;9.216;2023-02-28T08:28:41;95907.97;;;-1.33;100.00
4590;BME280;2307;48.448;9.216;2023-02-28T08:31:09;95909.31;;;-1.29;100.00
4590;BME280;2307;48.448;9.216;2023-02-28T08:33:36;95927.81;;;-1.24;100.00
4590;BME280;2307;48.448;9.216;2023-02-28T08:36:04;95921.63;;;-1.31;100.00
4590;BME280;2307;48.448;9.216;2023-02-28T08:38:30;95913.16;;;-1.33;100.00
4590;BME280;2307;48.448;9.216;2023-02-28T08:40:57;95920.28;;;-1.35;100.00
4590;BME280;2307;48.448;9.216;2023-02-28T08:43:24;95926.94;;;-1.15;100.00
4590;BME280;2307;48.448;9.216;2023-02-28T08:45:51;95924.56;;;-1.26;100.00
4590;BME280;2307;48.448;9.216;2023-02-28T08:48:18;95923.00;;;-1.19;100.00
4590;BME280;2307;48.448;9.216;2023-02-28T08:50:54;95922.09;;;-1.10;100.00
4590;BME280;2307;48.448;9.216;2023-02-28T08:53:20;95928.31;;;-1.02;100.00
4590;BME280;2307;48.448;9.216;2023-02-28T08:55:46;95927.16;;;-1.08;100.00
4590;BME280;2307;48.448;9.216;2023-02-28T08:58:13;95926.75;;;-0.95;100.00
4590;BME280;2307;48.448;9.216;2023-02-28T09:00:39;95935.78;;;-0.99;100.00
4590;BME280;2307;48.448;9.216;2023-02-28T09:03:05;95934.13;;;-1.09;100.00
4590;BME280;2307;48.448;9.216;2023-02-28T09:05:33;95934.75;;;-1.07;100.00
4590;BME280;2307;48.448;9.216;2023-02-28T09:07:59;95938.09;;;-0.96;100.00
4590;BME280;2307;48.448;9.216;2023-02-28T09:10:26;95940.97;;;-0.99;100.00
4590;BME280;2307;48.448;9.216;2023-02-28T09:12:52;95939.78;;;-0.87;100.00
4590;BME280;2307;48.448;9.216;2023-02-28T09:15:18;95940.38;;;-0.93;100.00
4590;BME280;2307;48.448;9.216;2023-02-28T09:17:45;95946.72;;;-0.70;100.00
4590;BME280;2307;48.448;9.216;2023-02-28T09:20:11;95952.59;;;-0.60;100.00
4590;BME280;2307;48.448;9.216;2023-02-28T09:22:39;95952.69;;;-0.70;100.00
4590;BME280;2307;48.448;9.216;2023-02-28T09:25:06;95957.38;;;-0.47;100.00
4590;BME280;2307;48.448;9.216;2023-02-28T09:27:32;95957.69;;;-0.76;100.00
4590;BME280;2307;48.448;9.216;2023-02-28T09:29:59;95956.47;;;-0.64;100.00
4590;BME280;2307;48.448;9.216;2023-02-28T09:32:25;95961.53;;;-0.80;100.00
4590;BME280;2307;48.448;9.216;2023-02-28T09:34:52;95955.16;;;-0.68;100.00
4590;BME280;2307;48.448;9.216;2023-02-28T09:37:18;95957.78;;;-0.60;100.00
4590;BME280;2307;48.448;9.216;2023-02-28T09:39:46;95947.38;;;-0.68;100.00
4590;BME280;2307;48.448;9.216;2023-02-28T09:42:16;95960.44;;;-0.52;100.00
4590;BME280;2307;48.448;9.216;2023-02-28T09:44:44;95952.69;;;-0.44;100.00
4590;BME280;2307;48.448;9.216;2023-02-28T09:47:13;95967.47;;;-0.44;100.00
4590;BME280;2307;48.448;9.216;2023-02-28T09:49:44;95970.19;;;-0.46;100.00
4590;BME280;2307;48.448;9.216;2023-02-28T09:52:12;95967.16;;;-0.41;100.00
4590;BME280;2307;48.448;9.216;2023-02-28T09:54:39;95967.16;;;-0.41;100.00
4590;BME280;2307;48.448;9.216;2023-02-28T09:57:08;95968.03;;;-0.25;100.00
4590;BME280;2307;48.448;9.216;2023-02-28T09:59:49;95975.50;;;-0.30;100.00
4590;BME280;2307;48.448;9.216;2023-02-28T10:05:05;95981.63;;;-0.31;100.00
4590;BME280;2307;48.448;9.216;2023-02-28T10:07:37;95978.72;;;-0.02;100.00
4590;BME280;2307;48.448;9.216;2023-02-28T10:10:14;95982.63;;;0.02;100.00
4590;BME280;2307;48.448;9.216;2023-02-28T10:12:43;95982.88;;;-0.09;100.00
4590;BME280;2307;48.448;9.216;2023-02-28T10:15:12;95980.84;;;0.03;100.00
4590;BME280;2307;48.448;9.216;2023-02-28T10:17:39;95980.56;;;0.14;100.00
4590;BME280;2307;48.448;9.216;2023-02-28T10:20:09;95986.75;;;0.13;100.00
4590;BME280;2307;48.448;9.216;2023-02-28T10:22:40;95990.63;;;0.09;100.00
4590;BME280;2307;48.448;9.216;2023-02-28T10:25:16;95985.19;;;0.28;100.00
4590;BME280;2307;48.448;9.216;2023-02-28T10:27:44;95979.09;;;0.53;100.00
4590;BME280;2307;48.448;9.216;2023-02-28T10:30:11;95979.44;;;0.66;98.39
4590;BME280;2307;48.448;9.216;2023-02-28T10:32:38;95982.84;;;0.67;98.22
4590;BME280;2307;48.448;9.216;2023-02-28T10:35:09;95990.03;;;0.73;97.57
4590;BME280;2307;48.448;9.216;2023-02-28T10:37:37;95988.56;;;0.78;98.69
4590;BME280;2307;48.448;9.216;2023-02-28T10:40:05;95985.94;;;0.70;98.53
4590;BME280;2307;48.448;9.216;2023-02-28T10:42:32;95985.56;;;0.49;97.59
4590;BME280;2307;48.448;9.216;2023-02-28T10:45:09;95999.19;;;0.43;100.00
4590;BME280;2307;48.448;9.216;2023-02-28T10:47:38;95988.53;;;0.62;97.40
4590;BME280;2307;48.448;9.216;2023-02-28T10:52:49;95988.53;;;0.62;98.12
4590;BME280;2307;48.448;9.216;2023-02-28T10:55:18;95983.00;;;0.65;98.41
4590;BME280;2307;48.448;9.216;2023-02-28T10:57:45;95983.19;;;0.80;95.73
4590;BME280;2307;48.448;9.216;2023-02-28T11:00:15;95994.75;;;0.93;94.86
4590;BME280;2307;48.448;9.216;2023-02-28T11:02:42;95992.47;;;0.82;96.61
4590;BME280;2307;48.448;9.216;2023-02-28T11:05:22;95994.91;;;0.84;93.29
4590;BME280;2307;48.448;9.216;2023-02-28T11:07:51;95999.97;;;1.01;90.74
4590;BME280;2307;48.448;9.216;2023-02-28T11:10:18;96000.59;;;0.95;88.42
4590;BME280;2307;48.448;9.216;2023-02-28T11:12:45;95993.47;;;1.14;87.84
4590;BME280;2307;48.448;9.216;2023-02-28T11:15:21;95998.66;;;0.97;90.44
4590;BME280;2307;48.448;9.216;2023-02-28T11:17:53;96000.63;;;1.12;86.71
4590;BME280;2307;48.448;9.216;2023-02-28T11:20:20;96002.56;;;1.10;88.53
4590;BME280;2307;48.448;9.216;2023-02-28T11:22:48;95995.41;;;1.44;83.79
4590;BME280;2307;48.448;9.216;2023-02-28T11:25:21;95995.56;;;1.18;86.14
4590;BME280;2307;48.448;9.216;2023-02-28T11:27:49;95994.13;;;1.40;85.50
4590;BME280;2307;48.448;9.216;2023-02-28T11:30:27;95995.25;;;1.37;84.82
4590;BME280;2307;48.448;9.216;2023-02-28T11:32:54;95999.31;;;1.40;84.19
4590;BME280;2307;48.448;9.216;2023-02-28T11:35:22;95992.84;;;1.36;81.86
4590;BME280;2307;48.448;9.216;2023-02-28T11:37:52;95988.91;;;1.56;84.68
4590;BME280;2307;48.448;9.216;2023-02-28T11:40:23;95999.66;;;2.16;80.86
4590;BME280;2307;48.448;9.216;2023-02-28T11:42:57;95991.28;;;2.37;76.26
4590;BME280;2307;48.448;9.216;2023-02-28T11:45:36;95995.00;;;2.42;73.67
4590;BME280;2307;48.448;9.216;2023-02-28T11:48:14;95991.03;;;2.54;65.75
4590;BME280;2307;48.448;9.216;2023-02-28T11:50:47;95987.44;;;2.86;69.10
4590;BME280;2307;48.448;9.216;2023-02-28T11:53:21;95985.72;;;3.01;66.31
4590;BME280;2307;48.448;9.216;2023-02-28T11:55:49;95982.59;;;3.29;66.65
4590;BME280;2307;48.448;9.216;2023-02-28T11:58:22;95992.72;;;3.98;63.94
4590;BME280;2307;48.448;9.216;2023-02-28T12:00:59;95984.16;;;4.34;62.78
4590;BME280;2307;48.448;9.216;2023-02-28T12:03:31;95979.53;;;4.65;57.58
4590;BME280;2307;48.448;9.216;2023-02-28T12:06:05;95975.19;;;4.72;59.14
4590;BME280;2307;48.448;9.216;2023-02-28T12:08:45;95978.00;;;4.92;58.09
4590;BME280;2307;48.448;9.216;2023-02-28T12:11:14;95972.56;;;5.29;56.71
4590;BME280;2307;48.448;9.216;2023-02-28T12:13:46;95969.25;;;5.42;55.61
4590;BME280;2307;48.448;9.216;2023-02-28T12:16:19;95968.31;;;5.77;54.11
4590;BME280;2307;48.448;9.216;2023-02-28T12:18:53;95969.91;;;5.78;55.11
4590;BME280;2307;48.448;9.216;2023-02-28T12:21:25;95971.56;;;6.07;52.99
4590;BME280;2307;48.448;9.216;2023-02-28T12:24:13;95967.47;;;6.32;52.50
4590;BME280;2307;48.448;9.216;2023-02-28T12:26:44;95967.41;;;6.66;50.69
4590;BME280;2307;48.448;9.216;2023-02-28T12:29:13;95959.06;;;7.17;57.90
4590;BME280;2307;48.448;9.216;2023-02-28T12:31:44;95967.88;;;6.83;50.22
4590;BME280;2307;48.448;9.216;2023-02-28T12:34:12;95959.97;;;6.76;56.14
4590;BME280;2307;48.448;9.216;2023-02-28T12:36:39;95956.13;;;6.66;51.04
4590;BME280;2307;48.448;9.216;2023-02-28T12:39:08;95960.41;;;6.80;50.19
4590;BME280;2307;48.448;9.216;2023-02-28T12:41:40;95963.88;;;6.93;49.92
4590;BME280;2307;48.448;9.216;2023-02-28T12:44:08;95958.00;;;6.98;48.68
4590;BME280;2307;48.448;9.216;2023-02-28T12:46:38;95959.03;;;6.36;49.20
4590;BME280;2307;48.448;9.216;2023-02-28T12:49:09;95961.50;;;6.10;50.64
4590;BME280;2307;48.448;9.216;2023-02-28T12:51:36;95956.47;;;6.09;50.73
4590;BME280;2307;48.448;9.216;2023-02-28T12:54:05;95956.25;;;6.10;51.11
4590;BME280;2307;48.448;9.216;2023-02-28T12:56:38;95951.13;;;5.96;51.30
4590;BME280;2307;48.448;9.216;2023-02-28T12:59:10;95951.09;;;5.68;50.98
4590;BME280;2307;48.448;9.216;2023-02-28T13:04:33;95943.66;;;5.44;52.78
4590;BME280;2307;48.448;9.216;2023-02-28T13:10:00;95942.44;;;6.29;51.44
4590;BME280;2307;48.448;9.216;2023-02-28T13:12:28;95938.63;;;6.38;50.62
4590;BME280;2307;48.448;9.216;2023-02-28T13:15:01;95933.34;;;6.32;50.81
4590;BME280;2307;48.448;9.216;2023-02-28T13:17:28;95939.53;;;6.59;49.53
4590;BME280;2307;48.448;9.216;2023-02-28T13:19:57;95934.06;;;6.60;48.99
4590;BME280;2307;48.448;9.216;2023-02-28T13:22:38;95942.00;;;6.73;48.68
4590;BME280;2307;48.448;9.216;2023-02-28T13:27:46;95933.81;;;7.03;48.20
4590;BME280;2307;48.448;9.216;2023-02-28T13:33:21;95930.22;;;7.56;47.99
4590;BME280;2307;48.448;9.216;2023-02-28T13:35:50;95930.53;;;8.12;45.88
4590;BME280;2307;48.448;9.216;2023-02-28T13:38:34;95939.88;;;7.95;46.70
4590;BME280;2307;48.448;9.216;2023-02-28T13:43:58;95935.66;;;7.68;47.60
4590;BME280;2307;48.448;9.216;2023-02-28T13:46:25;95936.06;;;7.38;46.97